sensor_id;sensor_type;location;lat;lon;timestamp;P1;durP1;ratioP1;P2;durP2;ratioP2
45208;SDS011;30951;43.994;26.260;2023-07-09T00:02:21;24.80;;;13.02;;
45208;SDS011;30951;43.994;26.260;2023-07-09T00:04:47;22.92;;;11.65;;
45208;SDS011;30951;43.994;26.260;2023-07-09T00:09:57;29.52;;;12.68;;
45208;SDS011;30951;43.994;26.260;2023-07-09T00:12:23;21.75;;;9.18;;
45208;SDS011;30951;43.994;26.260;2023-07-09T00:14:49;17.95;;;9.48;;
45208;SDS011;30951;43.994;26.260;2023-07-09T00:19:45;11.93;;;7.53;;
45208;SDS011;30951;43.994;26.260;2023-07-09T00:22:14;14.57;;;7.80;;
45208;SDS011;30951;43.994;26.260;2023-07-09T00:24:44;11.82;;;7.40;;
45208;SDS011;30951;43.994;26.260;2023-07-09T00:27:13;12.63;;;6.75;;
45208;SDS011;30951;43.994;26.260;2023-07-09T00:29:40;14.05;;;7.38;;
45208;SDS011;30951;43.994;26.260;2023-07-09T00:32:15;13.45;;;7.85;;
45208;SDS011;30951;43.994;26.260;2023-07-09T00:34:44;16.70;;;7.70;;
45208;SDS011;30951;43.994;26.260;2023-07-09T00:37:17;12.18;;;7.55;;
45208;SDS011;30951;43.994;26.260;2023-07-09T00:39:47;11.70;;;6.83;;
45208;SDS011;30951;43.994;26.260;2023-07-09T00:42:20;11.27;;;7.35;;
45208;SDS011;30951;43.994;26.260;2023-07-09T00:44:49;12.48;;;7.05;;
45208;SDS011;30951;43.994;26.260;2023-07-09T00:50:16;12.45;;;7.35;;
45208;SDS011;30951;43.994;26.260;2023-07-09T00:53:20;14.32;;;7.32;;
45208;SDS011;30951;43.994;26.260;2023-07-09T00:55:54;15.30;;;7.35;;
45208;SDS011;30951;43.994;26.260;2023-07-09T00:58:21;17.27;;;8.10;;
45208;SDS011;30951;43.994;26.260;2023-07-09T01:00:53;16.45;;;9.00;;
45208;SDS011;30951;43.994;26.260;2023-07-09T01:03:23;20.08;;;9.10;;
45208;SDS011;30951;43.994;26.260;2023-07-09T01:06:00;15.40;;;8.40;;
45208;SDS011;30951;43.994;26.260;2023-07-09T01:08:28;14.23;;;8.32;;
45208;SDS011;30951;43.994;26.260;2023-07-09T01:10:57;13.65;;;8.13;;
45208;SDS011;30951;43.994;26.260;2023-07-09T01:13:27;21.05;;;8.80;;
45208;SDS011;30951;43.994;26.260;2023-07-09T01:15:53;16.63;;;7.40;;
45208;SDS011;30951;43.994;26.260;2023-07-09T01:18:20;13.23;;;7.43;;
45208;SDS011;30951;43.994;26.260;2023-07-09T01:20:46;10.93;;;6.18;;
45208;SDS011;30951;43.994;26.260;2023-07-09T01:23:12;10.30;;;6.63;;
45208;SDS011;30951;43.994;26.260;2023-07-09T01:25:39;12.57;;;6.10;;
45208;SDS011;30951;43.994;26.260;2023-07-09T01:28:08;10.38;;;6.47;;
45208;SDS011;30951;43.994;26.260;2023-07-09T01:30:37;8.57;;;5.55;;
45208;SDS011;30951;43.994;26.260;2023-07-09T01:33:04;8.93;;;5.10;;
45208;SDS011;30951;43.994;26.260;2023-07-09T01:35:32;11.50;;;6.13;;
45208;SDS011;30951;43.994;26.260;2023-07-09T01:37:59;13.73;;;6.30;;
45208;SDS011;30951;43.994;26.260;2023-07-09T01:40:25;9.00;;;5.75;;
45208;SDS011;30951;43.994;26.260;2023-07-09T01:42:53;14.90;;;5.93;;
45208;SDS011;30951;43.994;26.260;2023-07-09T01:45:20;13.75;;;6.47;;
45208;SDS011;30951;43.994;26.260;2023-07-09T01:47:46;9.27;;;5.75;;
45208;SDS011;30951;43.994;26.260;2023-07-09T01:50:11;11.25;;;6.07;;
45208;SDS011;30951;43.994;26.260;2023-07-09T01:52:38;8.07;;;5.88;;
45208;SDS011;30951;43.994;26.260;2023-07-09T01:55:08;10.80;;;5.50;;
45208;SDS011;30951;43.994;26.260;2023-07-09T01:57:35;8.57;;;5.88;;
45208;SDS011;30951;43.994;26.260;2023-07-09T02:00:05;9.70;;;6.10;;
45208;SDS011;30951;43.994;26.260;2023-07-09T02:02:36;8.77;;;6.05;;
45208;SDS011;30951;43.994;26.260;2023-07-09T02:05:04;9.02;;;5.45;;
45208;SDS011;30951;43.994;26.260;2023-07-09T02:07:30;8.63;;;5.25;;
45208;SDS011;30951;43.994;26.260;2023-07-09T02:09:56;9.57;;;6.50;;
45208;SDS011;30951;43.994;26.260;2023-07-09T02:12:23;11.10;;;5.78;;
45208;SDS011;30951;43.994;26.260;2023-07-09T02:14:48;9.32;;;6.15;;
45208;SDS011;30951;43.994;26.260;2023-07-09T02:17:14;11.98;;;6.38;;
45208;SDS011;30951;43.994;26.260;2023-07-09T02:19:40;12.32;;;6.47;;
45208;SDS011;30951;43.994;26.260;2023-07-09T02:22:05;9.43;;;5.95;;
45208;SDS011;30951;43.994;26.260;2023-07-09T02:24:31;9.32;;;6.47;;
45208;SDS011;30951;43.994;26.260;2023-07-09T02:26:58;9.95;;;6.43;;
45208;SDS011;30951;43.994;26.260;2023-07-09T02:29:25;7.38;;;6.00;;
45208;SDS011;30951;43.994;26.260;2023-07-09T02:31:51;9.73;;;6.40;;
45208;SDS011;30951;43.994;26.260;2023-07-09T02:34:18;12.27;;;6.32;;
45208;SDS011;30951;43.994;26.260;2023-07-09T02:36:44;12.45;;;6.00;;
45208;SDS011;30951;43.994;26.260;2023-07-09T02:39:10;12.32;;;6.32;;
45208;SDS011;30951;43.994;26.260;2023-07-09T02:41:36;12.75;;;5.97;;
45208;SDS011;30951;43.994;26.260;2023-07-09T02:44:02;12.48;;;6.95;;
45208;SDS011;30951;43.994;26.260;2023-07-09T02:46:28;10.35;;;6.65;;
45208;SDS011;30951;43.994;26.260;2023-07-09T02:48:54;13.88;;;6.75;;
45208;SDS011;30951;43.994;26.260;2023-07-09T02:51:20;9.13;;;6.65;;
45208;SDS011;30951;43.994;26.260;2023-07-09T02:53:45;12.27;;;7.65;;
45208;SDS011;30951;43.994;26.260;2023-07-09T02:56:11;9.95;;;7.22;;
45208;SDS011;30951;43.994;26.260;2023-07-09T02:58:36;10.27;;;6.40;;
45208;SDS011;30951;43.994;26.260;2023-07-09T03:01:02;10.32;;;7.10;;
45208;SDS011;30951;43.994;26.260;2023-07-09T03:03:28;14.55;;;7.22;;
45208;SDS011;30951;43.994;26.260;2023-07-09T03:05:54;12.38;;;7.22;;
45208;SDS011;30951;43.994;26.260;2023-07-09T03:08:19;11.88;;;6.90;;
45208;SDS011;30951;43.994;26.260;2023-07-09T03:10:45;10.50;;;7.43;;
45208;SDS011;30951;43.994;26.260;2023-07-09T03:13:10;11.73;;;7.53;;
45208;SDS011;30951;43.994;26.260;2023-07-09T03:15:36;11.80;;;6.95;;
45208;SDS011;30951;43.994;26.260;2023-07-09T03:18:01;14.20;;;7.05;;
45208;SDS011;30951;43.994;26.260;2023-07-09T03:20:27;11.43;;;7.20;;
45208;SDS011;30951;43.994;26.260;2023-07-09T03:22:53;13.45;;;8.02;;
45208;SDS011;30951;43.994;26.260;2023-07-09T03:25:18;14.88;;;8.80;;
45208;SDS011;30951;43.994;26.260;2023-07-09T03:27:46;12.65;;;7.20;;
45208;SDS011;30951;43.994;26.260;2023-07-09T03:30:12;12.13;;;7.50;;
45208;SDS011;30951;43.994;26.260;2023-07-09T03:32:38;9.48;;;7.78;;
45208;SDS011;30951;43.994;26.260;2023-07-09T03:35:03;11.88;;;7.70;;
45208;SDS011;30951;43.994;26.260;2023-07-09T03:37:29;16.13;;;9.23;;
45208;SDS011;30951;43.994;26.260;2023-07-09T03:39:54;13.00;;;8.10;;
45208;SDS011;30951;43.994;26.260;2023-07-09T03:42:20;15.05;;;8.40;;
45208;SDS011;30951;43.994;26.260;2023-07-09T03:44:45;17.23;;;8.10;;
45208;SDS011;30951;43.994;26.260;2023-07-09T03:47:11;11.00;;;7.70;;
45208;SDS011;30951;43.994;26.260;2023-07-09T03:49:37;18.92;;;8.55;;
45208;SDS011;30951;43.994;26.260;2023-07-09T03:52:03;16.15;;;7.90;;
45208;SDS011;30951;43.994;26.260;2023-07-09T03:54:29;13.07;;;8.70;;
45208;SDS011;30951;43.994;26.260;2023-07-09T03:56:54;16.42;;;8.68;;
45208;SDS011;30951;43.994;26.260;2023-07-09T03:59:19;11.38;;;7.38;;
45208;SDS011;30951;43.994;26.260;2023-07-09T04:01:45;12.55;;;7.55;;
45208;SDS011;30951;43.994;26.260;2023-07-09T04:04:11;10.80;;;7.53;;
45208;SDS011;30951;43.994;26.260;2023-07-09T04:06:37;13.30;;;8.90;;
45208;SDS011;30951;43.994;26.260;2023-07-09T04:09:03;21.80;;;9.32;;
45208;SDS011;30951;43.994;26.260;2023-07-09T04:11:28;10.13;;;7.88;;
45208;SDS011;30951;43.994;26.260;2023-07-09T04:13:54;11.32;;;7.93;;
45208;SDS011;30951;43.994;26.260;2023-07-09T04:16:19;18.38;;;8.40;;
45208;SDS011;30951;43.994;26.260;2023-07-09T04:18:45;20.63;;;8.25;;
45208;SDS011;30951;43.994;26.260;2023-07-09T04:21:10;20.42;;;7.85;;
45208;SDS011;30951;43.994;26.260;2023-07-09T04:23:36;11.80;;;7.75;;
45208;SDS011;30951;43.994;26.260;2023-07-09T04:26:01;9.35;;;6.30;;
45208;SDS011;30951;43.994;26.260;2023-07-09T04:28:28;9.90;;;5.82;;
45208;SDS011;30951;43.994;26.260;2023-07-09T04:30:55;9.48;;;6.35;;
45208;SDS011;30951;43.994;26.260;2023-07-09T04:33:21;9.82;;;5.93;;
45208;SDS011;30951;43.994;26.260;2023-07-09T04:35:46;8.23;;;6.07;;
45208;SDS011;30951;43.994;26.260;2023-07-09T04:38:12;10.70;;;5.93;;
45208;SDS011;30951;43.994;26.260;2023-07-09T04:40:38;14.63;;;5.85;;
45208;SDS011;30951;43.994;26.260;2023-07-09T04:43:04;7.80;;;5.80;;
45208;SDS011;30951;43.994;26.260;2023-07-09T04:45:29;11.02;;;5.70;;
45208;SDS011;30951;43.994;26.260;2023-07-09T04:47:54;9.82;;;5.65;;
45208;SDS011;30951;43.994;26.260;2023-07-09T04:50:20;7.35;;;5.68;;
45208;SDS011;30951;43.994;26.260;2023-07-09T04:52:45;5.90;;;4.90;;
45208;SDS011;30951;43.994;26.260;2023-07-09T04:55:11;6.80;;;5.07;;
45208;SDS011;30951;43.994;26.260;2023-07-09T04:57:36;10.45;;;4.68;;
45208;SDS011;30951;43.994;26.260;2023-07-09T05:00:02;12.73;;;5.53;;
45208;SDS011;30951;43.994;26.260;2023-07-09T05:02:30;6.07;;;4.50;;
45208;SDS011;30951;43.994;26.260;2023-07-09T05:04:55;7.90;;;3.85;;
45208;SDS011;30951;43.994;26.260;2023-07-09T05:07:21;8.18;;;4.07;;
45208;SDS011;30951;43.994;26.260;2023-07-09T05:09:46;6.75;;;3.72;;
45208;SDS011;30951;43.994;26.260;2023-07-09T05:12:12;5.00;;;3.65;;
45208;SDS011;30951;43.994;26.260;2023-07-09T05:14:38;5.78;;;3.97;;
45208;SDS011;30951;43.994;26.260;2023-07-09T05:17:04;3.97;;;3.22;;
45208;SDS011;30951;43.994;26.260;2023-07-09T05:19:30;7.28;;;3.00;;
45208;SDS011;30951;43.994;26.260;2023-07-09T05:21:55;5.28;;;3.15;;
45208;SDS011;30951;43.994;26.260;2023-07-09T05:24:21;4.95;;;3.30;;
45208;SDS011;30951;43.994;26.260;2023-07-09T05:26:46;3.75;;;3.13;;
45208;SDS011;30951;43.994;26.260;2023-07-09T05:29:12;4.88;;;3.10;;
45208;SDS011;30951;43.994;26.260;2023-07-09T05:31:38;3.58;;;2.92;;
45208;SDS011;30951;43.994;26.260;2023-07-09T05:34:03;7.95;;;3.40;;
45208;SDS011;30951;43.994;26.260;2023-07-09T05:36:29;6.38;;;3.03;;
45208;SDS011;30951;43.994;26.260;2023-07-09T05:38:55;8.07;;;3.10;;
45208;SDS011;30951;43.994;26.260;2023-07-09T05:41:21;4.40;;;2.88;;
45208;SDS011;30951;43.994;26.260;2023-07-09T05:43:49;3.45;;;2.78;;
45208;SDS011;30951;43.994;26.260;2023-07-09T05:46:15;4.95;;;3.30;;
45208;SDS011;30951;43.994;26.260;2023-07-09T05:48:40;3.25;;;2.95;;
45208;SDS011;30951;43.994;26.260;2023-07-09T05:51:06;3.92;;;3.15;;
45208;SDS011;30951;43.994;26.260;2023-07-09T05:53:35;4.90;;;3.10;;
45208;SDS011;30951;43.994;26.260;2023-07-09T05:56:00;3.85;;;2.90;;
45208;SDS011;30951;43.994;26.260;2023-07-09T05:58:25;4.93;;;2.83;;
45208;SDS011;30951;43.994;26.260;2023-07-09T06:00:51;2.88;;;2.47;;
45208;SDS011;30951;43.994;26.260;2023-07-09T06:03:25;4.68;;;3.08;;
45208;SDS011;30951;43.994;26.260;2023-07-09T06:05:52;4.95;;;2.58;;
45208;SDS011;30951;43.994;26.260;2023-07-09T06:08:21;4.03;;;2.60;;
45208;SDS011;30951;43.994;26.260;2023-07-09T06:11:00;4.35;;;3.03;;
45208;SDS011;30951;43.994;26.260;2023-07-09T06:13:27;5.25;;;2.78;;
45208;SDS011;30951;43.994;26.260;2023-07-09T06:15:55;5.75;;;2.58;;
45208;SDS011;30951;43.994;26.260;2023-07-09T06:18:22;5.22;;;2.50;;
45208;SDS011;30951;43.994;26.260;2023-07-09T06:20:49;2.67;;;2.30;;
45208;SDS011;30951;43.994;26.260;2023-07-09T06:23:16;3.30;;;2.70;;
45208;SDS011;30951;43.994;26.260;2023-07-09T06:25:42;3.63;;;2.60;;
45208;SDS011;30951;43.994;26.260;2023-07-09T06:28:09;6.88;;;3.88;;
45208;SDS011;30951;43.994;26.260;2023-07-09T06:30:35;4.25;;;3.25;;
45208;SDS011;30951;43.994;26.260;2023-07-09T06:33:01;3.60;;;2.72;;
45208;SDS011;30951;43.994;26.260;2023-07-09T06:35:27;4.28;;;3.17;;
45208;SDS011;30951;43.994;26.260;2023-07-09T06:37:52;10.45;;;8.02;;
45208;SDS011;30951;43.994;26.260;2023-07-09T06:40:18;8.10;;;6.13;;
45208;SDS011;30951;43.994;26.260;2023-07-09T06:42:43;4.13;;;3.10;;
45208;SDS011;30951;43.994;26.260;2023-07-09T06:45:09;5.10;;;3.30;;
45208;SDS011;30951;43.994;26.260;2023-07-09T06:47:35;6.88;;;5.25;;
45208;SDS011;30951;43.994;26.260;2023-07-09T06:50:00;6.18;;;3.63;;
45208;SDS011;30951;43.994;26.260;2023-07-09T06:52:26;3.17;;;2.13;;
45208;SDS011;30951;43.994;26.260;2023-07-09T06:54:51;19.10;;;12.30;;
45208;SDS011;30951;43.994;26.260;2023-07-09T06:57:17;4.65;;;2.25;;
45208;SDS011;30951;43.994;26.260;2023-07-09T06:59:42;2.97;;;2.40;;
45208;SDS011;30951;43.994;26.260;2023-07-09T07:02:08;2.78;;;2.10;;
45208;SDS011;30951;43.994;26.260;2023-07-09T07:04:33;1.95;;;1.45;;
45208;SDS011;30951;43.994;26.260;2023-07-09T07:06:59;4.88;;;1.25;;
45208;SDS011;30951;43.994;26.260;2023-07-09T07:09:25;2.17;;;1.60;;
45208;SDS011;30951;43.994;26.260;2023-07-09T07:11:50;1.73;;;1.38;;
45208;SDS011;30951;43.994;26.260;2023-07-09T07:14:15;3.00;;;1.95;;
45208;SDS011;30951;43.994;26.260;2023-07-09T07:16:41;3.55;;;1.83;;
45208;SDS011;30951;43.994;26.260;2023-07-09T07:19:06;1.60;;;1.20;;
45208;SDS011;30951;43.994;26.260;2023-07-09T07:21:32;1.50;;;1.38;;
45208;SDS011;30951;43.994;26.260;2023-07-09T07:23:57;2.55;;;1.45;;
45208;SDS011;30951;43.994;26.260;2023-07-09T07:26:23;3.67;;;1.23;;
45208;SDS011;30951;43.994;26.260;2023-07-09T07:28:49;1.40;;;1.10;;
45208;SDS011;30951;43.994;26.260;2023-07-09T07:31:15;2.53;;;1.40;;
45208;SDS011;30951;43.994;26.260;2023-07-09T07:33:41;3.22;;;1.30;;
45208;SDS011;30951;43.994;26.260;2023-07-09T07:36:07;2.38;;;1.25;;
45208;SDS011;30951;43.994;26.260;2023-07-09T07:38:33;1.77;;;1.40;;
45208;SDS011;30951;43.994;26.260;2023-07-09T07:40:58;2.40;;;1.75;;
45208;SDS011;30951;43.994;26.260;2023-07-09T07:43:24;2.70;;;1.10;;
45208;SDS011;30951;43.994;26.260;2023-07-09T07:45:50;1.67;;;1.40;;
45208;SDS011;30951;43.994;26.260;2023-07-09T07:48:15;1.45;;;1.35;;
45208;SDS011;30951;43.994;26.260;2023-07-09T07:50:41;1.38;;;1.27;;
45208;SDS011;30951;43.994;26.260;2023-07-09T07:53:07;1.88;;;1.48;;
45208;SDS011;30951;43.994;26.260;2023-07-09T07:55:33;2.15;;;1.05;;
45208;SDS011;30951;43.994;26.260;2023-07-09T07:58:01;2.42;;;1.20;;
45208;SDS011;30951;43.994;26.260;2023-07-09T08:00:29;1.48;;;1.23;;
45208;SDS011;30951;43.994;26.260;2023-07-09T08:02:55;1.10;;;1.00;;
45208;SDS011;30951;43.994;26.260;2023-07-09T08:05:20;2.53;;;1.08;;
45208;SDS011;30951;43.994;26.260;2023-07-09T08:07:46;1.00;;;0.90;;
45208;SDS011;30951;43.994;26.260;2023-07-09T08:10:11;2.63;;;1.10;;
45208;SDS011;30951;43.994;26.260;2023-07-09T08:12:37;0.93;;;0.82;;
45208;SDS011;30951;43.994;26.260;2023-07-09T08:15:03;3.75;;;1.30;;
45208;SDS011;30951;43.994;26.260;2023-07-09T08:17:29;2.28;;;1.27;;
45208;SDS011;30951;43.994;26.260;2023-07-09T08:19:55;1.75;;;0.98;;
45208;SDS011;30951;43.994;26.260;2023-07-09T08:22:21;1.98;;;1.25;;
45208;SDS011;30951;43.994;26.260;2023-07-09T08:24:47;7.25;;;1.20;;
45208;SDS011;30951;43.994;26.260;2023-07-09T08:27:13;1.20;;;1.10;;
45208;SDS011;30951;43.994;26.260;2023-07-09T08:29:39;1.30;;;1.20;;
45208;SDS011;30951;43.994;26.260;2023-07-09T08:32:06;2.17;;;1.27;;
45208;SDS011;30951;43.994;26.260;2023-07-09T08:34:32;3.55;;;1.08;;
45208;SDS011;30951;43.994;26.260;2023-07-09T08:36:58;1.20;;;1.10;;
45208;SDS011;30951;43.994;26.260;2023-07-09T08:39:23;1.33;;;1.23;;
45208;SDS011;30951;43.994;26.260;2023-07-09T08:42:09;4.88;;;1.50;;
45208;SDS011;30951;43.994;26.260;2023-07-09T08:47:12;1.95;;;1.40;;
45208;SDS011;30951;43.994;26.260;2023-07-09T08:52:41;2.65;;;1.20;;
45208;SDS011;30951;43.994;26.260;2023-07-09T08:55:18;2.17;;;1.17;;
45208;SDS011;30951;43.994;26.260;2023-07-09T08:57:49;2.50;;;1.40;;
45208;SDS011;30951;43.994;26.260;2023-07-09T09:00:21;16.60;;;1.23;;
45208;SDS011;30951;43.994;26.260;2023-07-09T09:02:56;1.60;;;1.13;;
45208;SDS011;30951;43.994;26.260;2023-07-09T09:05:24;1.30;;;1.10;;
45208;SDS011;30951;43.994;26.260;2023-07-09T09:08:00;2.60;;;1.42;;
45208;SDS011;30951;43.994;26.260;2023-07-09T09:10:43;1.92;;;1.10;;
45208;SDS011;30951;43.994;26.260;2023-07-09T09:13:13;1.13;;;1.00;;
45208;SDS011;30951;43.994;26.260;2023-07-09T09:15:42;1.60;;;1.02;;
45208;SDS011;30951;43.994;26.260;2023-07-09T09:23:41;2.78;;;1.00;;
45208;SDS011;30951;43.994;26.260;2023-07-09T09:26:14;1.88;;;1.13;;
45208;SDS011;30951;43.994;26.260;2023-07-09T09:28:43;1.42;;;1.27;;
45208;SDS011;30951;43.994;26.260;2023-07-09T09:31:11;1.77;;;1.13;;
45208;SDS011;30951;43.994;26.260;2023-07-09T09:33:45;1.10;;;1.00;;
45208;SDS011;30951;43.994;26.260;2023-07-09T09:36:29;3.33;;;1.05;;
45208;SDS011;30951;43.994;26.260;2023-07-09T09:38:55;1.13;;;1.00;;
45208;SDS011;30951;43.994;26.260;2023-07-09T09:41:24;4.70;;;1.00;;
45208;SDS011;30951;43.994;26.260;2023-07-09T09:46:26;1.95;;;0.90;;
45208;SDS011;30951;43.994;26.260;2023-07-09T09:48:55;1.27;;;1.17;;
45208;SDS011;30951;43.994;26.260;2023-07-09T09:51:24;1.02;;;0.93;;
45208;SDS011;30951;43.994;26.260;2023-07-09T09:53:59;1.83;;;1.20;;
45208;SDS011;30951;43.994;26.260;2023-07-09T09:56:30;4.32;;;0.93;;
45208;SDS011;30951;43.994;26.260;2023-07-09T09:59:00;1.67;;;1.17;;
45208;SDS011;30951;43.994;26.260;2023-07-09T10:01:29;1.42;;;1.00;;
45208;SDS011;30951;43.994;26.260;2023-07-09T10:03:56;2.38;;;1.30;;
45208;SDS011;30951;43.994;26.260;2023-07-09T10:06:34;1.15;;;1.00;;
45208;SDS011;30951;43.994;26.260;2023-07-09T10:14:56;2.95;;;1.10;;
45208;SDS011;30951;43.994;26.260;2023-07-09T10:17:45;2.08;;;1.13;;
45208;SDS011;30951;43.994;26.260;2023-07-09T10:22:47;1.48;;;1.33;;
45208;SDS011;30951;43.994;26.260;2023-07-09T10:25:30;1.70;;;1.15;;
45208;SDS011;30951;43.994;26.260;2023-07-09T10:28:19;3.90;;;1.20;;
45208;SDS011;30951;43.994;26.260;2023-07-09T10:33:44;2.83;;;1.00;;
45208;SDS011;30951;43.994;26.260;2023-07-09T10:39:12;1.13;;;1.02;;
45208;SDS011;30951;43.994;26.260;2023-07-09T10:41:41;1.08;;;0.98;;
45208;SDS011;30951;43.994;26.260;2023-07-09T10:44:22;1.10;;;1.00;;
45208;SDS011;30951;43.994;26.260;2023-07-09T10:47:04;1.52;;;1.42;;
45208;SDS011;30951;43.994;26.260;2023-07-09T10:49:36;4.07;;;1.20;;
45208;SDS011;30951;43.994;26.260;2023-07-09T10:52:05;1.08;;;1.00;;
45208;SDS011;30951;43.994;26.260;2023-07-09T10:54:38;1.23;;;1.13;;
45208;SDS011;30951;43.994;26.260;2023-07-09T10:57:29;1.50;;;0.88;;
45208;SDS011;30951;43.994;26.260;2023-07-09T10:59:52;4.40;;;1.17;;
45208;SDS011;30951;43.994;26.260;2023-07-09T11:02:23;2.13;;;1.10;;
45208;SDS011;30951;43.994;26.260;2023-07-09T11:04:55;1.55;;;1.05;;
45208;SDS011;30951;43.994;26.260;2023-07-09T11:07:33;1.42;;;1.00;;
45208;SDS011;30951;43.994;26.260;2023-07-09T11:10:03;3.95;;;1.10;;
45208;SDS011;30951;43.994;26.260;2023-07-09T11:12:39;2.00;;;1.10;;
45208;SDS011;30951;43.994;26.260;2023-07-09T11:15:10;1.98;;;1.05;;
45208;SDS011;30951;43.994;26.260;2023-07-09T11:17:39;1.05;;;0.98;;
45208;SDS011;30951;43.994;26.260;2023-07-09T11:20:16;3.30;;;1.00;;
45208;SDS011;30951;43.994;26.260;2023-07-09T11:22:50;2.55;;;1.23;;
45208;SDS011;30951;43.994;26.260;2023-07-09T11:25:27;1.20;;;1.10;;
45208;SDS011;30951;43.994;26.260;2023-07-09T11:28:03;5.65;;;2.15;;
45208;SDS011;30951;43.994;26.260;2023-07-09T11:30:30;3.65;;;1.40;;
45208;SDS011;30951;43.994;26.260;2023-07-09T11:32:57;1.20;;;1.10;;
45208;SDS011;30951;43.994;26.260;2023-07-09T11:35:25;1.38;;;1.27;;
45208;SDS011;30951;43.994;26.260;2023-07-09T11:37:52;2.15;;;1.00;;
45208;SDS011;30951;43.994;26.260;2023-07-09T11:40:21;1.10;;;1.00;;
45208;SDS011;30951;43.994;26.260;2023-07-09T11:45:28;2.15;;;1.00;;
45208;SDS011;30951;43.994;26.260;2023-07-09T11:50:47;3.25;;;0.98;;
45208;SDS011;30951;43.994;26.260;2023-07-09T11:55:58;1.27;;;0.85;;
45208;SDS011;30951;43.994;26.260;2023-07-09T11:58:24;1.35;;;0.98;;
45208;SDS011;30951;43.994;26.260;2023-07-09T12:00:50;1.13;;;0.90;;
45208;SDS011;30951;43.994;26.260;2023-07-09T12:03:33;1.33;;;0.70;;
45208;SDS011;30951;43.994;26.260;2023-07-09T12:06:01;2.20;;;0.90;;
45208;SDS011;30951;43.994;26.260;2023-07-09T12:08:38;1.23;;;0.90;;
45208;SDS011;30951;43.994;26.260;2023-07-09T12:11:06;1.15;;;1.05;;
45208;SDS011;30951;43.994;26.260;2023-07-09T12:13:38;1.13;;;0.95;;
45208;SDS011;30951;43.994;26.260;2023-07-09T12:16:16;1.38;;;1.10;;
45208;SDS011;30951;43.994;26.260;2023-07-09T12:18:45;3.03;;;1.08;;
45208;SDS011;30951;43.994;26.260;2023-07-09T12:21:11;1.50;;;1.02;;
45208;SDS011;30951;43.994;26.260;2023-07-09T12:23:37;1.33;;;1.00;;
45208;SDS011;30951;43.994;26.260;2023-07-09T12:26:05;0.98;;;0.90;;
45208;SDS011;30951;43.994;26.260;2023-07-09T12:28:31;1.15;;;0.90;;
45208;SDS011;30951;43.994;26.260;2023-07-09T12:30:56;0.70;;;0.70;;
45208;SDS011;30951;43.994;26.260;2023-07-09T12:33:26;3.63;;;1.20;;
45208;SDS011;30951;43.994;26.260;2023-07-09T12:35:57;1.00;;;0.80;;
45208;SDS011;30951;43.994;26.260;2023-07-09T12:38:25;1.40;;;1.02;;
45208;SDS011;30951;43.994;26.260;2023-07-09T12:40:52;1.65;;;1.23;;
45208;SDS011;30951;43.994;26.260;2023-07-09T12:43:28;0.90;;;0.85;;
45208;SDS011;30951;43.994;26.260;2023-07-09T12:45:57;1.70;;;1.33;;
45208;SDS011;30951;43.994;26.260;2023-07-09T12:48:27;1.15;;;0.88;;
45208;SDS011;30951;43.994;26.260;2023-07-09T12:50:57;2.97;;;1.15;;
45208;SDS011;30951;43.994;26.260;2023-07-09T12:53:24;1.35;;;0.90;;
45208;SDS011;30951;43.994;26.260;2023-07-09T12:55:58;0.80;;;0.80;;
45208;SDS011;30951;43.994;26.260;2023-07-09T12:58:25;1.27;;;0.90;;
45208;SDS011;30951;43.994;26.260;2023-07-09T13:00:54;3.60;;;1.15;;
45208;SDS011;30951;43.994;26.260;2023-07-09T13:03:21;1.27;;;1.05;;
45208;SDS011;30951;43.994;26.260;2023-07-09T13:05:55;1.65;;;1.10;;
45208;SDS011;30951;43.994;26.260;2023-07-09T13:08:26;1.52;;;0.85;;
45208;SDS011;30951;43.994;26.260;2023-07-09T13:10:52;1.33;;;0.98;;
45208;SDS011;30951;43.994;26.260;2023-07-09T13:13:19;1.95;;;1.40;;
45208;SDS011;30951;43.994;26.260;2023-07-09T13:15:56;1.20;;;1.10;;
45208;SDS011;30951;43.994;26.260;2023-07-09T13:18:24;1.35;;;1.00;;
45208;SDS011;30951;43.994;26.260;2023-07-09T13:20:50;1.17;;;0.88;;
45208;SDS011;30951;43.994;26.260;2023-07-09T13:23:18;1.95;;;1.20;;
45208;SDS011;30951;43.994;26.260;2023-07-09T13:25:45;2.25;;;0.90;;
45208;SDS011;30951;43.994;26.260;2023-07-09T13:28:14;1.63;;;1.13;;
45208;SDS011;30951;43.994;26.260;2023-07-09T13:33:10;1.30;;;0.95;;
45208;SDS011;30951;43.994;26.260;2023-07-09T13:35:36;1.30;;;1.00;;
45208;SDS011;30951;43.994;26.260;2023-07-09T13:38:02;0.88;;;0.88;;
45208;SDS011;30951;43.994;26.260;2023-07-09T13:40:31;1.95;;;0.90;;
45208;SDS011;30951;43.994;26.260;2023-07-09T13:42:57;2.83;;;0.85;;
45208;SDS011;30951;43.994;26.260;2023-07-09T13:45:24;1.65;;;1.15;;
45208;SDS011;30951;43.994;26.260;2023-07-09T13:47:50;1.48;;;1.17;;
45208;SDS011;30951;43.994;26.260;2023-07-09T13:50:17;2.75;;;1.40;;
45208;SDS011;30951;43.994;26.260;2023-07-09T13:52:44;1.08;;;0.98;;
45208;SDS011;30951;43.994;26.260;2023-07-09T13:55:20;2.47;;;1.13;;
45208;SDS011;30951;43.994;26.260;2023-07-09T13:57:48;1.00;;;0.90;;
45208;SDS011;30951;43.994;26.260;2023-07-09T14:00:15;3.88;;;1.40;;
45208;SDS011;30951;43.994;26.260;2023-07-09T14:02:41;1.35;;;1.20;;
45208;SDS011;30951;43.994;26.260;2023-07-09T14:07:38;2.05;;;1.00;;
45208;SDS011;30951;43.994;26.260;2023-07-09T14:10:06;3.10;;;0.98;;
45208;SDS011;30951;43.994;26.260;2023-07-09T14:12:35;2.53;;;1.17;;
45208;SDS011;30951;43.994;26.260;2023-07-09T14:15:05;1.40;;;1.13;;
45208;SDS011;30951;43.994;26.260;2023-07-09T14:17:37;1.70;;;1.10;;
45208;SDS011;30951;43.994;26.260;2023-07-09T14:20:03;2.35;;;1.27;;
45208;SDS011;30951;43.994;26.260;2023-07-09T14:22:33;3.28;;;1.05;;
45208;SDS011;30951;43.994;26.260;2023-07-09T14:24:59;4.57;;;1.00;;
45208;SDS011;30951;43.994;26.260;2023-07-09T14:27:26;1.40;;;1.13;;
45208;SDS011;30951;43.994;26.260;2023-07-09T14:29:52;8.80;;;1.17;;
45208;SDS011;30951;43.994;26.260;2023-07-09T14:35:00;1.20;;;0.80;;
45208;SDS011;30951;43.994;26.260;2023-07-09T14:37:27;3.15;;;1.10;;
45208;SDS011;30951;43.994;26.260;2023-07-09T14:39:53;1.88;;;1.10;;
45208;SDS011;30951;43.994;26.260;2023-07-09T14:42:18;1.60;;;1.08;;
45208;SDS011;30951;43.994;26.260;2023-07-09T14:44:44;1.33;;;1.00;;
45208;SDS011;30951;43.994;26.260;2023-07-09T14:47:17;2.47;;;1.27;;
45208;SDS011;30951;43.994;26.260;2023-07-09T14:49:43;1.20;;;1.10;;
45208;SDS011;30951;43.994;26.260;2023-07-09T14:52:13;1.65;;;1.10;;
45208;SDS011;30951;43.994;26.260;2023-07-09T14:54:43;3.08;;;1.30;;
45208;SDS011;30951;43.994;26.260;2023-07-09T14:57:16;1.25;;;1.08;;
45208;SDS011;30951;43.994;26.260;2023-07-09T14:59:44;2.03;;;1.38;;
45208;SDS011;30951;43.994;26.260;2023-07-09T15:04:54;1.20;;;0.90;;
45208;SDS011;30951;43.994;26.260;2023-07-09T15:07:19;1.13;;;1.00;;
45208;SDS011;30951;43.994;26.260;2023-07-09T15:09:45;0.82;;;0.82;;
45208;SDS011;30951;43.994;26.260;2023-07-09T15:12:19;1.20;;;1.10;;
45208;SDS011;30951;43.994;26.260;2023-07-09T15:14:47;2.20;;;1.10;;
45208;SDS011;30951;43.994;26.260;2023-07-09T15:17:13;1.00;;;0.90;;
45208;SDS011;30951;43.994;26.260;2023-07-09T15:19:39;2.85;;;0.80;;
45208;SDS011;30951;43.994;26.260;2023-07-09T15:22:04;2.35;;;1.10;;
45208;SDS011;30951;43.994;26.260;2023-07-09T15:24:31;1.48;;;0.95;;
45208;SDS011;30951;43.994;26.260;2023-07-09T15:26:58;1.20;;;0.73;;
45208;SDS011;30951;43.994;26.260;2023-07-09T15:29:25;1.75;;;1.17;;
45208;SDS011;30951;43.994;26.260;2023-07-09T15:31:51;0.95;;;0.85;;